createdAt,value
2018-09-03T00:00:50.555Z,1019.95
2018-09-03T00:01:50.499Z,1019.93
2018-09-03T00:02:50.478Z,1019.9
2018-09-03T00:03:50.418Z,1019.9
2018-09-03T00:04:50.543Z,1019.88
2018-09-03T00:05:50.747Z,1019.91
2018-09-03T00:06:50.427Z,1019.88
2018-09-03T00:07:50.402Z,1019.91
2018-09-03T00:08:50.379Z,1019.92
2018-09-03T00:09:50.375Z,1019.92
2018-09-03T00:10:50.421Z,1019.89
2018-09-03T00:11:50.336Z,1019.88
2018-09-03T00:12:50.637Z,1019.87
2018-09-03T00:13:50.399Z,1019.84
2018-09-03T00:14:50.483Z,1019.85
2018-09-03T00:15:50.427Z,1019.87
2018-09-03T00:16:50.334Z,1019.84
2018-09-03T00:17:50.417Z,1019.86
2018-09-03T00:18:50.433Z,1019.83
2018-09-03T00:19:50.514Z,1019.85
2018-09-03T00:20:50.499Z,1019.82
2018-09-03T00:21:50.425Z,1019.8
2018-09-03T00:22:50.474Z,1019.86
2018-09-03T00:23:50.416Z,1019.85
2018-09-03T00:24:50.373Z,1019.86
2018-09-03T00:25:50.392Z,1019.85
2018-09-03T00:26:50.341Z,1019.86
2018-09-03T00:27:50.357Z,1019.89
2018-09-03T00:28:50.521Z,1019.83
2018-09-03T00:29:50.367Z,1019.82
2018-09-03T00:30:50.388Z,1019.79
2018-09-03T00:31:50.951Z,1019.77
2018-09-03T00:32:50.422Z,1019.81
2018-09-03T00:33:50.350Z,1019.81
2018-09-03T00:34:50.557Z,1019.79
2018-09-03T00:35:50.536Z,1019.83
2018-09-03T00:36:50.677Z,1019.84
2018-09-03T00:37:50.366Z,1019.82
2018-09-03T00:38:50.474Z,1019.85
2018-09-03T00:39:50.340Z,1019.86
2018-09-03T00:40:50.356Z,1019.88
2018-09-03T00:41:50.336Z,1019.9
2018-09-03T00:42:50.538Z,1019.96
2018-09-03T00:43:50.499Z,1019.96
2018-09-03T00:44:50.523Z,1020
2018-09-03T00:45:50.502Z,1020
2018-09-03T00:46:50.358Z,1020.03
2018-09-03T00:47:50.433Z,1020
2018-09-03T00:48:50.360Z,1019.99
2018-09-03T00:49:50.387Z,1019.96
2018-09-03T00:50:50.333Z,1019.99
2018-09-03T00:51:50.352Z,1019.99
2018-09-03T00:52:50.327Z,1020.01
2018-09-03T00:53:50.373Z,1020.03
2018-09-03T00:54:50.348Z,1020.06
2018-09-03T00:55:50.370Z,1020.08
2018-09-03T00:56:50.457Z,1020.13
2018-09-03T00:57:50.336Z,1020.14
2018-09-03T00:58:50.424Z,1020.21
2018-09-03T00:59:50.339Z,1020.24
2018-09-03T01:00:50.373Z,1020.27
2018-09-03T01:01:50.376Z,1020.25
2018-09-03T01:02:50.324Z,1020.28
2018-09-03T01:03:50.333Z,1020.3
2018-09-03T01:04:50.454Z,1020.29
2018-09-03T01:05:50.693Z,1020.33
2018-09-03T01:06:50.334Z,1020.34
2018-09-03T01:07:50.339Z,1020.27
2018-09-03T01:08:50.321Z,1020.28
2018-09-03T01:09:50.548Z,1020.29
2018-09-03T01:10:50.697Z,1020.29
2018-09-03T01:11:50.352Z,1020.28
2018-09-03T01:12:50.480Z,1020.33
2018-09-03T01:13:50.375Z,1020.33
2018-09-03T01:14:50.324Z,1020.35
2018-09-03T01:15:50.811Z,1020.35
2018-09-03T01:16:50.338Z,1020.37
2018-09-03T01:17:50.312Z,1020.35
2018-09-03T01:18:50.360Z,1020.35
2018-09-03T01:19:50.360Z,1020.38
2018-09-03T01:20:50.371Z,1020.4
2018-09-03T01:21:50.331Z,1020.39
2018-09-03T01:22:50.404Z,1020.37
2018-09-03T01:23:50.298Z,1020.39
2018-09-03T01:24:50.315Z,1020.38
2018-09-03T01:25:50.668Z,1020.41
2018-09-03T01:26:50.444Z,1020.37
2018-09-03T01:27:50.350Z,1020.39
2018-09-03T01:28:50.318Z,1020.36
2018-09-03T01:29:50.306Z,1020.34
2018-09-03T01:30:50.335Z,1020.33
2018-09-03T01:31:50.464Z,1020.29
2018-09-03T01:32:50.326Z,1020.3
2018-09-03T01:33:50.390Z,1020.24
2018-09-03T01:34:50.406Z,1020.28
2018-09-03T01:35:50.390Z,1020.25
2018-09-03T01:36:50.510Z,1020.29
2018-09-03T01:37:50.633Z,1020.29
2018-09-03T01:38:50.361Z,1020.28
2018-09-03T01:39:50.544Z,1020.24
2018-09-03T01:40:50.355Z,1020.21
2018-09-03T01:41:50.446Z,1020.19
2018-09-03T01:42:50.351Z,1020.21
2018-09-03T01:43:50.523Z,1020.21
2018-09-03T01:44:50.427Z,1020.19
2018-09-03T01:45:51.626Z,1020.2
2018-09-03T01:46:50.375Z,1020.17
2018-09-03T01:47:50.316Z,1020.21
2018-09-03T01:48:50.306Z,1020.16
2018-09-03T01:49:50.578Z,1020.12
2018-09-03T01:50:50.300Z,1020.1
2018-09-03T01:51:50.354Z,1020.06
2018-09-03T01:52:50.316Z,1020.03
2018-09-03T01:53:50.324Z,1020.03
2018-09-03T01:54:50.381Z,1019.98
2018-09-03T01:55:50.299Z,1019.98
2018-09-03T01:56:50.398Z,1019.98
2018-09-03T01:57:50.397Z,1019.99
2018-09-03T01:58:50.302Z,1019.97
2018-09-03T01:59:50.459Z,1019.97
2018-09-03T02:00:50.332Z,1019.96
2018-09-03T02:01:50.430Z,1019.96
2018-09-03T02:02:50.368Z,1019.93
2018-09-03T02:03:50.698Z,1019.95
2018-09-03T02:04:50.454Z,1019.99
2018-09-03T02:05:50.582Z,1019.98
2018-09-03T02:06:50.350Z,1019.97
2018-09-03T02:07:50.361Z,1019.97
2018-09-03T02:08:50.703Z,1019.95
2018-09-03T02:09:50.398Z,1019.99
2018-09-03T02:10:50.414Z,1019.96
2018-09-03T02:11:50.513Z,1019.96
2018-09-03T02:12:50.348Z,1019.97
2018-09-03T02:13:50.424Z,1020
2018-09-03T02:14:50.380Z,1020
2018-09-03T02:15:50.385Z,1020.03
2018-09-03T02:16:50.323Z,1020.03
2018-09-03T02:17:50.290Z,1020.08
2018-09-03T02:18:51.138Z,1020.04
2018-09-03T02:19:50.422Z,1020.04
2018-09-03T02:20:50.462Z,1020.02
2018-09-03T02:21:50.369Z,1019.97
2018-09-03T02:22:50.330Z,1020
2018-09-03T02:23:50.287Z,1020.01
2018-09-03T02:24:50.302Z,1020
2018-09-03T02:25:50.337Z,1019.98
2018-09-03T02:26:50.292Z,1019.95
2018-09-03T02:27:50.305Z,1019.95
2018-09-03T02:28:50.302Z,1019.96
2018-09-03T02:29:50.300Z,1019.97
2018-09-03T02:30:50.340Z,1019.9
2018-09-03T02:31:50.293Z,1019.91
2018-09-03T02:32:50.290Z,1019.89
2018-09-03T02:33:50.333Z,1019.86
2018-09-03T02:34:50.340Z,1019.89
2018-09-03T02:35:50.658Z,1019.88
2018-09-03T02:36:50.299Z,1019.84
2018-09-03T02:37:50.332Z,1019.86
2018-09-03T02:38:50.279Z,1019.83
2018-09-03T02:39:50.321Z,1019.85
2018-09-03T02:40:50.379Z,1019.86
2018-09-03T02:41:50.594Z,1019.83
2018-09-03T02:42:50.495Z,1019.87
2018-09-03T02:43:50.606Z,1019.85
2018-09-03T02:44:50.290Z,1019.86
2018-09-03T02:45:50.345Z,1019.87
2018-09-03T02:46:50.350Z,1019.85
2018-09-03T02:47:50.473Z,1019.84
2018-09-03T02:48:50.332Z,1019.85
2018-09-03T02:49:50.328Z,1019.82
2018-09-03T02:50:50.321Z,1019.81
2018-09-03T02:51:50.334Z,1019.89
2018-09-03T02:52:50.389Z,1019.84
2018-09-03T02:53:50.356Z,1019.85
2018-09-03T02:54:50.373Z,1019.83
2018-09-03T02:55:50.486Z,1019.84
2018-09-03T02:56:50.547Z,1019.82
2018-09-03T02:57:50.393Z,1019.86
2018-09-03T02:58:50.314Z,1019.81
2018-09-03T02:59:50.415Z,1019.79
2018-09-03T03:00:50.386Z,1019.77
2018-09-03T03:01:50.613Z,1019.76
2018-09-03T03:02:50.281Z,1019.76
2018-09-03T03:03:50.640Z,1019.72
2018-09-03T03:04:50.305Z,1019.68
2018-09-03T03:05:50.299Z,1019.67
2018-09-03T03:06:50.577Z,1019.67
2018-09-03T03:07:50.324Z,1019.61
2018-09-03T03:08:50.282Z,1019.63
2018-09-03T03:09:50.290Z,1019.57
2018-09-03T03:10:50.603Z,1019.59
2018-09-03T03:11:50.409Z,1019.58
2018-09-03T03:12:50.364Z,1019.55
2018-09-03T03:13:51.136Z,1019.55
2018-09-03T03:14:50.341Z,1019.51
2018-09-03T03:15:50.275Z,1019.51
2018-09-03T03:16:50.410Z,1019.51
2018-09-03T03:17:50.309Z,1019.46
2018-09-03T03:18:50.366Z,1019.48
2018-09-03T03:19:50.273Z,1019.49
2018-09-03T03:20:50.272Z,1019.51
2018-09-03T03:21:50.288Z,1019.51
2018-09-03T03:22:50.314Z,1019.47
2018-09-03T03:23:50.499Z,1019.46
2018-09-03T03:24:50.404Z,1019.48
2018-09-03T03:25:50.381Z,1019.47
2018-09-03T03:26:50.340Z,1019.45
2018-09-03T03:27:50.608Z,1019.43
2018-09-03T03:28:50.381Z,1019.45
2018-09-03T03:29:50.556Z,1019.5
2018-09-03T03:30:50.271Z,1019.45
2018-09-03T03:31:50.639Z,1019.49
2018-09-03T03:32:50.271Z,1019.44
2018-09-03T03:33:50.464Z,1019.42
2018-09-03T03:34:50.541Z,1019.39
2018-09-03T03:35:50.334Z,1019.41
2018-09-03T03:36:50.306Z,1019.39
2018-09-03T03:37:50.316Z,1019.37
2018-09-03T03:38:50.272Z,1019.34
2018-09-03T03:39:50.475Z,1019.3
2018-09-03T03:40:50.368Z,1019.28
2018-09-03T03:41:50.359Z,1019.28
2018-09-03T03:42:50.481Z,1019.3
2018-09-03T03:43:50.680Z,1019.28
2018-09-03T03:44:50.616Z,1019.26
2018-09-03T03:45:50.269Z,1019.29
2018-09-03T03:46:50.318Z,1019.27
2018-09-03T03:47:50.626Z,1019.27
2018-09-03T03:48:50.258Z,1019.3
2018-09-03T03:49:50.275Z,1019.28
2018-09-03T03:50:50.300Z,1019.31
2018-09-03T03:51:50.275Z,1019.34
2018-09-03T03:52:50.437Z,1019.35
2018-09-03T03:53:50.276Z,1019.35
2018-09-03T03:54:50.352Z,1019.33
2018-09-03T03:55:50.467Z,1019.36
2018-09-03T03:56:50.330Z,1019.36
2018-09-03T03:57:50.623Z,1019.33
2018-09-03T03:58:50.276Z,1019.33
2018-09-03T03:59:50.421Z,1019.36
2018-09-03T04:00:50.313Z,1019.33
2018-09-03T04:01:50.422Z,1019.34
2018-09-03T04:02:50.255Z,1019.34
2018-09-03T04:03:50.291Z,1019.32
2018-09-03T04:04:50.282Z,1019.27
2018-09-03T04:05:50.306Z,1019.31
2018-09-03T04:06:50.283Z,1019.28
2018-09-03T04:07:50.291Z,1019.28
2018-09-03T04:08:50.277Z,1019.31
2018-09-03T04:09:50.263Z,1019.29
2018-09-03T04:10:50.251Z,1019.29
2018-09-03T04:11:50.273Z,1019.27
2018-09-03T04:12:50.262Z,1019.27
2018-09-03T04:13:50.273Z,1019.24
2018-09-03T04:14:50.295Z,1019.24
2018-09-03T04:15:50.315Z,1019.2
2018-09-03T04:16:50.427Z,1019.19
2018-09-03T04:17:50.283Z,1019.22
2018-09-03T04:18:50.290Z,1019.22
2018-09-03T04:19:50.258Z,1019.19
2018-09-03T04:20:50.252Z,1019.22
2018-09-03T04:21:50.310Z,1019.18
2018-09-03T04:22:50.446Z,1019.2
2018-09-03T04:23:50.506Z,1019.21
2018-09-03T04:24:50.276Z,1019.2
2018-09-03T04:25:50.633Z,1019.17
2018-09-03T04:26:50.334Z,1019.18
2018-09-03T04:27:50.264Z,1019.13
2018-09-03T04:28:50.459Z,1019.16
2018-09-03T04:29:51.498Z,1019.12
2018-09-03T04:30:50.368Z,1019.14
2018-09-03T04:31:50.248Z,1019.14
2018-09-03T04:32:50.314Z,1019.11
2018-09-03T04:33:50.491Z,1019.13
2018-09-03T04:34:50.283Z,1019.14
2018-09-03T04:35:50.318Z,1019.17
2018-09-03T04:36:50.452Z,1019.15
2018-09-03T04:37:50.267Z,1019.13
2018-09-03T04:38:50.674Z,1019.16
2018-09-03T04:39:50.287Z,1019.14
2018-09-03T04:40:50.254Z,1019.16
2018-09-03T04:41:50.308Z,1019.2
2018-09-03T04:42:50.459Z,1019.19
2018-09-03T04:43:50.321Z,1019.22
2018-09-03T04:44:50.251Z,1019.21
2018-09-03T04:45:50.257Z,1019.24
2018-09-03T04:46:50.323Z,1019.24
2018-09-03T04:47:50.245Z,1019.29
2018-09-03T04:48:50.346Z,1019.24
2018-09-03T04:49:50.377Z,1019.21
2018-09-03T04:50:50.309Z,1019.23
2018-09-03T04:51:50.263Z,1019.24
2018-09-03T04:52:50.251Z,1019.17
2018-09-03T04:53:50.270Z,1019.2
2018-09-03T04:54:50.376Z,1019.23
2018-09-03T04:55:50.449Z,1019.19
2018-09-03T04:56:50.247Z,1019.19
2018-09-03T04:57:50.227Z,1019.18
2018-09-03T04:58:50.306Z,1019.19
2018-09-03T04:59:50.252Z,1019.18
2018-09-03T05:00:50.292Z,1019.18
2018-09-03T05:01:50.283Z,1019.18
2018-09-03T05:02:50.240Z,1019.17
2018-09-03T05:03:50.280Z,1019.22
2018-09-03T05:04:50.338Z,1019.14
2018-09-03T05:05:50.717Z,1019.1
2018-09-03T05:06:50.357Z,1019.14
2018-09-03T05:07:50.377Z,1019.11
2018-09-03T05:08:50.382Z,1019.14
2018-09-03T05:09:50.497Z,1019.16
2018-09-03T05:10:50.305Z,1019.2
2018-09-03T05:11:50.844Z,1019.16
2018-09-03T05:12:50.460Z,1019.11
2018-09-03T05:13:50.260Z,1019.18
2018-09-03T05:14:50.259Z,1019.16
2018-09-03T05:15:50.407Z,1019.16
2018-09-03T05:16:50.304Z,1019.19
2018-09-03T05:17:50.284Z,1019.21
2018-09-03T05:18:50.364Z,1019.24
2018-09-03T05:19:50.244Z,1019.27
2018-09-03T05:20:50.310Z,1019.3
2018-09-03T05:21:50.317Z,1019.25
2018-09-03T05:22:50.558Z,1019.25
2018-09-03T05:23:50.452Z,1019.25
2018-09-03T05:24:50.547Z,1019.25
2018-09-03T05:25:50.286Z,1019.22
2018-09-03T05:26:50.257Z,1019.23
2018-09-03T05:27:50.282Z,1019.24
2018-09-03T05:28:50.263Z,1019.25
2018-09-03T05:29:50.275Z,1019.29
2018-09-03T05:30:50.290Z,1019.29
2018-09-03T05:31:50.274Z,1019.32
2018-09-03T05:32:50.368Z,1019.33
2018-09-03T05:33:50.260Z,1019.29
2018-09-03T05:34:50.306Z,1019.31
2018-09-03T05:35:50.288Z,1019.33
2018-09-03T05:36:50.267Z,1019.35
2018-09-03T05:37:50.286Z,1019.35
2018-09-03T05:38:50.283Z,1019.36
2018-09-03T05:39:50.282Z,1019.36
2018-09-03T05:40:50.277Z,1019.4
2018-09-03T05:41:50.293Z,1019.39
2018-09-03T05:42:50.260Z,1019.42
2018-09-03T05:43:50.384Z,1019.4
2018-09-03T05:44:50.289Z,1019.44
2018-09-03T05:45:50.296Z,1019.46
2018-09-03T05:46:50.425Z,1019.44
2018-09-03T05:47:50.498Z,1019.48
2018-09-03T05:48:50.302Z,1019.46
2018-09-03T05:49:50.560Z,1019.47
2018-09-03T05:50:50.407Z,1019.46
2018-09-03T05:51:50.445Z,1019.49
2018-09-03T05:52:50.339Z,1019.49
2018-09-03T05:53:51.109Z,1019.51
2018-09-03T05:54:50.500Z,1019.5
2018-09-03T05:55:50.352Z,1019.5
2018-09-03T05:56:50.465Z,1019.48
2018-09-03T05:57:50.300Z,1019.48
2018-09-03T05:58:50.309Z,1019.5
2018-09-03T05:59:50.422Z,1019.47
2018-09-03T06:00:50.354Z,1019.5
2018-09-03T06:01:50.435Z,1019.49
2018-09-03T06:02:50.388Z,1019.5
2018-09-03T06:03:50.283Z,1019.49
2018-09-03T06:04:50.485Z,1019.49
2018-09-03T06:05:50.459Z,1019.44
2018-09-03T06:06:50.346Z,1019.44
2018-09-03T06:07:50.376Z,1019.42
2018-09-03T06:08:50.369Z,1019.41
2018-09-03T06:09:50.387Z,1019.4
2018-09-03T06:10:50.320Z,1019.38
2018-09-03T06:11:50.457Z,1019.39
2018-09-03T06:12:50.456Z,1019.41
2018-09-03T06:13:50.325Z,1019.38
2018-09-03T06:14:50.322Z,1019.37
2018-09-03T06:15:50.627Z,1019.37
2018-09-03T06:16:50.310Z,1019.36
2018-09-03T06:17:50.612Z,1019.32
2018-09-03T06:18:50.301Z,1019.32
2018-09-03T06:19:50.292Z,1019.33
2018-09-03T06:20:50.540Z,1019.34
2018-09-03T06:21:50.501Z,1019.37
2018-09-03T06:22:50.340Z,1019.39
2018-09-03T06:23:50.489Z,1019.38
2018-09-03T06:24:50.377Z,1019.35
2018-09-03T06:25:50.385Z,1019.34
2018-09-03T06:26:50.303Z,1019.37
2018-09-03T06:27:50.350Z,1019.34
2018-09-03T06:28:50.389Z,1019.32
2018-09-03T06:29:50.358Z,1019.29
2018-09-03T06:30:50.322Z,1019.29
2018-09-03T06:31:50.379Z,1019.31
2018-09-03T06:32:50.399Z,1019.29
2018-09-03T06:33:50.980Z,1019.27
2018-09-03T06:34:50.452Z,1019.22
2018-09-03T06:35:50.519Z,1019.21
2018-09-03T06:36:50.367Z,1019.23
2018-09-03T06:37:50.381Z,1019.21
2018-09-03T06:38:50.393Z,1019.21
2018-09-03T06:39:50.397Z,1019.26
2018-09-03T06:40:50.434Z,1019.22
2018-09-03T06:41:50.441Z,1019.27
2018-09-03T06:42:50.462Z,1019.24
2018-09-03T06:43:50.368Z,1019.22
2018-09-03T06:44:50.728Z,1019.25
2018-09-03T06:45:50.372Z,1019.24
2018-09-03T06:46:50.440Z,1019.27
2018-09-03T06:47:50.332Z,1019.26
2018-09-03T06:48:50.539Z,1019.31
2018-09-03T06:49:50.309Z,1019.28
2018-09-03T06:50:50.313Z,1019.28
2018-09-03T06:51:50.733Z,1019.32
2018-09-03T06:52:50.580Z,1019.3
2018-09-03T06:53:50.334Z,1019.31
2018-09-03T06:54:50.396Z,1019.26
2018-09-03T06:55:50.310Z,1019.28
2018-09-03T06:56:50.789Z,1019.24
2018-09-03T06:57:50.333Z,1019.28
2018-09-03T06:58:50.321Z,1019.31
2018-09-03T06:59:50.377Z,1019.3
2018-09-03T07:00:50.352Z,1019.28
2018-09-03T07:01:50.432Z,1019.3
2018-09-03T07:02:50.651Z,1019.26
2018-09-03T07:03:50.338Z,1019.29
2018-09-03T07:04:50.359Z,1019.31
2018-09-03T07:05:50.472Z,1019.29
2018-09-03T07:06:50.601Z,1019.32
2018-09-03T07:07:50.693Z,1019.34
2018-09-03T07:08:50.409Z,1019.31
2018-09-03T07:09:50.401Z,1019.3
2018-09-03T07:10:50.481Z,1019.31
2018-09-03T07:11:50.410Z,1019.32
2018-09-03T07:12:50.600Z,1019.33
2018-09-03T07:13:50.334Z,1019.34
2018-09-03T07:14:50.420Z,1019.33
2018-09-03T07:15:50.679Z,1019.33
2018-09-03T07:16:50.336Z,1019.32
2018-09-03T07:17:50.422Z,1019.34
2018-09-03T07:18:50.610Z,1019.32
2018-09-03T07:19:50.410Z,1019.34
2018-09-03T07:20:50.542Z,1019.3
2018-09-03T07:21:50.377Z,1019.31
2018-09-03T07:22:50.441Z,1019.33
2018-09-03T07:23:50.825Z,1019.3
2018-09-03T07:24:50.339Z,1019.3
2018-09-03T07:25:50.532Z,1019.23
2018-09-03T07:26:50.341Z,1019.25
2018-09-03T07:27:50.406Z,1019.23
2018-09-03T07:28:50.784Z,1019.26
2018-09-03T07:29:50.643Z,1019.26
2018-09-03T07:30:50.385Z,1019.24
2018-09-03T07:31:50.359Z,1019.18
2018-09-03T07:32:50.451Z,1019.2
2018-09-03T07:33:50.348Z,1019.21
2018-09-03T07:34:50.329Z,1019.17
2018-09-03T07:35:50.359Z,1019.19
2018-09-03T07:36:50.657Z,1019.18
2018-09-03T07:37:50.387Z,1019.18
2018-09-03T07:38:50.473Z,1019.19
2018-09-03T07:39:50.339Z,1019.15
2018-09-03T07:40:50.345Z,1019.13
2018-09-03T07:41:50.395Z,1019.09
2018-09-03T07:42:50.322Z,1019.12
2018-09-03T07:43:50.466Z,1019.14
2018-09-03T07:44:50.429Z,1019.14
2018-09-03T07:45:50.358Z,1019.11
2018-09-03T07:46:50.424Z,1019.12
2018-09-03T07:47:50.396Z,1019.16
2018-09-03T07:48:50.737Z,1019.15
2018-09-03T07:49:50.361Z,1019.14
2018-09-03T07:50:50.503Z,1019.18
2018-09-03T07:51:50.388Z,1019.2
2018-09-03T07:52:50.364Z,1019.18
2018-09-03T07:53:50.441Z,1019.17
2018-09-03T07:54:50.361Z,1019.13
2018-09-03T07:55:50.750Z,1019.13
2018-09-03T07:56:50.804Z,1019.09
2018-09-03T07:57:50.625Z,1019.13
2018-09-03T07:58:50.414Z,1019.15
2018-09-03T07:59:50.413Z,1019.07
2018-09-03T08:00:50.340Z,1019.05
2018-09-03T08:01:50.631Z,1019.07
2018-09-03T08:02:50.348Z,1019.11
2018-09-03T08:03:50.397Z,1019.13
2018-09-03T08:04:50.560Z,1019.11
2018-09-03T08:05:50.479Z,1019.14
2018-09-03T08:06:50.985Z,1019.13
2018-09-03T08:07:50.424Z,1019.16
2018-09-03T08:08:50.378Z,1019.13
2018-09-03T08:09:50.392Z,1019.14
2018-09-03T08:10:50.500Z,1019.13
2018-09-03T08:11:50.610Z,1019.19
2018-09-03T08:12:50.537Z,1019.18
2018-09-03T08:13:50.363Z,1019.24
2018-09-03T08:14:50.369Z,1019.25
2018-09-03T08:15:50.425Z,1019.22
2018-09-03T08:16:50.401Z,1019.19
2018-09-03T08:17:50.356Z,1019.18
2018-09-03T08:18:50.378Z,1019.19
2018-09-03T08:19:50.451Z,1019.23
2018-09-03T08:20:50.386Z,1019.19
2018-09-03T08:21:50.462Z,1019.27
2018-09-03T08:22:50.376Z,1019.25
2018-09-03T08:23:50.401Z,1019.22
2018-09-03T08:24:50.392Z,1019.22
2018-09-03T08:25:50.388Z,1019.25
2018-09-03T08:26:50.443Z,1019.25
2018-09-03T08:27:50.419Z,1019.28
2018-09-03T08:28:50.364Z,1019.23
2018-09-03T08:29:50.355Z,1019.24
2018-09-03T08:30:50.360Z,1019.19
2018-09-03T08:31:50.460Z,1019.22
2018-09-03T08:32:50.548Z,1019.17
2018-09-03T08:33:50.453Z,1019.19
2018-09-03T08:34:50.414Z,1019.12
2018-09-03T08:35:50.489Z,1019.19
2018-09-03T08:36:50.402Z,1019.18
2018-09-03T08:37:50.545Z,1019.17
2018-09-03T08:38:50.587Z,1019.17
2018-09-03T08:39:50.467Z,1019.16
2018-09-03T08:40:50.432Z,1019.16
2018-09-03T08:41:50.420Z,1019.15
2018-09-03T08:42:50.408Z,1019.14
2018-09-03T08:43:50.482Z,1019.1
2018-09-03T08:44:50.573Z,1019.12
2018-09-03T08:45:50.384Z,1019.11
2018-09-03T08:46:50.648Z,1019.13
2018-09-03T08:47:50.376Z,1019.07
2018-09-03T08:48:50.428Z,1019.07
2018-09-03T08:49:50.411Z,1019.07
2018-09-03T08:50:50.491Z,1019.04
2018-09-03T08:51:50.510Z,1019.02
2018-09-03T08:52:50.546Z,1019.03
2018-09-03T08:53:50.634Z,1019.05
2018-09-03T08:54:50.410Z,1019.04
2018-09-03T08:55:51.564Z,1019.07
2018-09-03T08:56:50.749Z,1019.01
2018-09-03T08:57:50.412Z,1019.01
2018-09-03T08:58:50.416Z,1018.95
2018-09-03T08:59:50.742Z,1018.97
2018-09-03T09:00:50.534Z,1018.99
2018-09-03T09:01:50.477Z,1018.98
2018-09-03T09:02:50.672Z,1018.96
2018-09-03T09:03:50.435Z,1018.95
2018-09-03T09:04:50.372Z,1018.95
2018-09-03T09:05:50.779Z,1018.94
2018-09-03T09:06:50.790Z,1018.92
2018-09-03T09:07:50.382Z,1018.95
2018-09-03T09:08:50.512Z,1018.92
2018-09-03T09:09:50.499Z,1018.91
2018-09-03T09:10:50.718Z,1018.87
2018-09-03T09:11:50.492Z,1018.88
2018-09-03T09:12:50.415Z,1018.91
2018-09-03T09:13:50.420Z,1018.9
2018-09-03T09:14:50.425Z,1018.89
2018-09-03T09:15:50.491Z,1018.87
2018-09-03T09:16:50.868Z,1018.82
2018-09-03T09:17:50.440Z,1018.82
2018-09-03T09:18:50.431Z,1018.76
2018-09-03T09:19:50.445Z,1018.73
2018-09-03T09:20:50.480Z,1018.77
2018-09-03T09:21:50.638Z,1018.72
2018-09-03T09:22:50.457Z,1018.73
2018-09-03T09:23:50.425Z,1018.67
2018-09-03T09:24:50.805Z,1018.7
2018-09-03T09:25:50.700Z,1018.7
2018-09-03T09:26:50.495Z,1018.73
2018-09-03T09:27:50.666Z,1018.66
2018-09-03T09:28:50.705Z,1018.63
2018-09-03T09:29:50.430Z,1018.66
2018-09-03T09:30:50.561Z,1018.66
2018-09-03T09:31:50.583Z,1018.65
2018-09-03T09:32:50.443Z,1018.7
2018-09-03T09:33:50.418Z,1018.69
2018-09-03T09:34:50.429Z,1018.66
2018-09-03T09:35:50.558Z,1018.68
2018-09-03T09:36:50.510Z,1018.7
2018-09-03T09:37:50.620Z,1018.7
2018-09-03T09:38:50.414Z,1018.74
2018-09-03T09:39:50.450Z,1018.7
2018-09-03T09:40:50.561Z,1018.72
2018-09-03T09:41:50.422Z,1018.74
2018-09-03T09:42:50.863Z,1018.7
2018-09-03T09:43:50.479Z,1018.72
2018-09-03T09:44:50.545Z,1018.67
2018-09-03T09:45:50.478Z,1018.67
2018-09-03T09:46:50.490Z,1018.65
2018-09-03T09:47:50.480Z,1018.7
2018-09-03T09:48:50.402Z,1018.71
2018-09-03T09:49:50.463Z,1018.7
2018-09-03T09:50:50.424Z,1018.72
2018-09-03T09:51:50.433Z,1018.67
2018-09-03T09:52:50.452Z,1018.7
2018-09-03T09:53:50.705Z,1018.72
2018-09-03T09:54:50.561Z,1018.69
2018-09-03T09:55:50.617Z,1018.7
2018-09-03T09:56:50.706Z,1018.67
2018-09-03T09:57:50.615Z,1018.65
2018-09-03T09:58:50.427Z,1018.63
2018-09-03T09:59:50.568Z,1018.55
2018-09-03T10:00:50.498Z,1018.56
2018-09-03T10:01:50.446Z,1018.56
2018-09-03T10:02:50.469Z,1018.53
2018-09-03T10:03:50.617Z,1018.55
2018-09-03T10:04:50.453Z,1018.53
2018-09-03T10:05:50.537Z,1018.47
2018-09-03T10:06:50.608Z,1018.5
2018-09-03T10:07:50.474Z,1018.48
2018-09-03T10:08:50.417Z,1018.54
2018-09-03T10:09:50.481Z,1018.53
2018-09-03T10:10:50.515Z,1018.51
2018-09-03T10:11:50.486Z,1018.56
2018-09-03T10:12:50.475Z,1018.55
2018-09-03T10:13:50.480Z,1018.52
2018-09-03T10:14:50.559Z,1018.48
2018-09-03T10:15:50.542Z,1018.46
2018-09-03T10:16:50.435Z,1018.48
2018-09-03T10:17:50.804Z,1018.48
2018-09-03T10:18:50.604Z,1018.45
2018-09-03T10:19:50.605Z,1018.45
2018-09-03T10:20:50.593Z,1018.43
2018-09-03T10:21:50.672Z,1018.45
2018-09-03T10:22:50.477Z,1018.42
2018-09-03T10:23:50.447Z,1018.4
2018-09-03T10:24:50.540Z,1018.42
2018-09-03T10:25:50.442Z,1018.46
2018-09-03T10:26:50.677Z,1018.42
2018-09-03T10:27:50.620Z,1018.46
2018-09-03T10:28:50.436Z,1018.46
2018-09-03T10:29:50.636Z,1018.46
2018-09-03T10:30:50.504Z,1018.48
2018-09-03T10:31:50.715Z,1018.42
2018-09-03T10:32:50.495Z,1018.43
2018-09-03T10:33:50.562Z,1018.42
2018-09-03T10:34:50.520Z,1018.39
2018-09-03T10:35:50.482Z,1018.43
2018-09-03T10:36:50.689Z,1018.4
2018-09-03T10:37:50.452Z,1018.4
2018-09-03T10:38:50.568Z,1018.33
2018-09-03T10:39:50.589Z,1018.34
2018-09-03T10:40:50.472Z,1018.34
2018-09-03T10:41:50.457Z,1018.29
2018-09-03T10:42:50.507Z,1018.3
2018-09-03T10:43:50.530Z,1018.33
2018-09-03T10:44:50.576Z,1018.38
2018-09-03T10:45:50.538Z,1018.36
2018-09-03T10:46:50.656Z,1018.4
2018-09-03T10:47:50.527Z,1018.38
2018-09-03T10:48:50.473Z,1018.36
2018-09-03T10:49:51.185Z,1018.36
2018-09-03T10:50:50.470Z,1018.42
2018-09-03T10:51:50.451Z,1018.35
2018-09-03T10:52:50.696Z,1018.36
2018-09-03T10:53:50.477Z,1018.37
2018-09-03T10:54:50.590Z,1018.36
2018-09-03T10:55:51.054Z,1018.35
2018-09-03T10:56:50.470Z,1018.37
2018-09-03T10:57:50.456Z,1018.33
2018-09-03T10:58:50.656Z,1018.28
2018-09-03T10:59:50.472Z,1018.32
2018-09-03T11:00:50.457Z,1018.24
2018-09-03T11:01:50.501Z,1018.3
2018-09-03T11:02:50.518Z,1018.29
2018-09-03T11:03:50.468Z,1018.3
2018-09-03T11:04:50.487Z,1018.29
2018-09-03T11:05:50.625Z,1018.29
2018-09-03T11:06:50.578Z,1018.29
2018-09-03T11:07:50.509Z,1018.29
2018-09-03T11:08:50.476Z,1018.3
2018-09-03T11:09:50.536Z,1018.31
2018-09-03T11:10:50.486Z,1018.31
2018-09-03T11:11:50.458Z,1018.3
2018-09-03T11:12:50.612Z,1018.3
2018-09-03T11:13:50.878Z,1018.3
2018-09-03T11:14:50.465Z,1018.3
2018-09-03T11:15:50.594Z,1018.3
2018-09-03T11:16:50.534Z,1018.29
2018-09-03T11:17:50.837Z,1018.32
2018-09-03T11:18:50.670Z,1018.31
2018-09-03T11:19:50.700Z,1018.28
2018-09-03T11:20:50.676Z,1018.26
2018-09-03T11:21:50.538Z,1018.25
2018-09-03T11:22:50.595Z,1018.26
2018-09-03T11:23:51.833Z,1018.25
2018-09-03T11:24:50.614Z,1018.21
2018-09-03T11:25:50.642Z,1018.24
2018-09-03T11:26:50.582Z,1018.19
2018-09-03T11:27:50.833Z,1018.2
2018-09-03T11:28:50.753Z,1018.21
2018-09-03T11:29:50.492Z,1018.22
2018-09-03T11:30:50.714Z,1018.21
2018-09-03T11:31:50.547Z,1018.19
2018-09-03T11:32:50.544Z,1018.19
2018-09-03T11:33:50.610Z,1018.18
2018-09-03T11:34:50.621Z,1018.17
2018-09-03T11:35:50.595Z,1018.15
2018-09-03T11:36:50.503Z,1018.13
2018-09-03T11:37:50.544Z,1018.09
2018-09-03T11:38:50.541Z,1018.14
2018-09-03T11:39:50.571Z,1018.08
2018-09-03T11:40:50.845Z,1018.12
2018-09-03T11:41:50.517Z,1018.08
2018-09-03T11:42:50.616Z,1018.1
2018-09-03T11:43:51.047Z,1018.07
2018-09-03T11:44:50.857Z,1018.12
2018-09-03T11:45:50.538Z,1018.11
2018-09-03T11:46:50.559Z,1018.14
2018-09-03T11:47:50.652Z,1018.11
2018-09-03T11:48:50.510Z,1018.12
2018-09-03T11:49:50.619Z,1018.14
2018-09-03T11:50:50.497Z,1018.15
2018-09-03T11:51:50.750Z,1018.11
2018-09-03T11:52:50.494Z,1018.09
2018-09-03T11:53:50.538Z,1018.06
2018-09-03T11:54:50.973Z,1018.07
2018-09-03T11:55:50.755Z,1018.03
2018-09-03T11:56:50.533Z,1018.03
2018-09-03T11:57:51.104Z,1018.05
2018-09-03T11:58:50.530Z,1018.05
2018-09-03T11:59:50.848Z,1018
2018-09-03T12:00:50.522Z,1017.97
2018-09-03T12:01:50.543Z,1017.94
2018-09-03T12:02:50.664Z,1017.97
2018-09-03T12:03:50.555Z,1017.96
2018-09-03T12:04:50.537Z,1017.97
2018-09-03T12:05:50.628Z,1017.98
2018-09-03T12:06:50.688Z,1017.99
2018-09-03T12:07:50.532Z,1017.97
2018-09-03T12:08:50.529Z,1018